sensor_id;sensor_type;location;lat;lon;timestamp;P1;durP1;ratioP1;P2;durP2;ratioP2
58567;SDS011;44354;46.192;-1.076;2022-07-10T00:01:05;9.13;;;1.20;;
58567;SDS011;44354;46.192;-1.076;2022-07-10T00:03:31;4.93;;;1.10;;
58567;SDS011;44354;46.192;-1.076;2022-07-10T00:05:57;10.68;;;1.30;;
58567;SDS011;44354;46.192;-1.076;2022-07-10T00:08:23;3.15;;;1.13;;
58567;SDS011;44354;46.192;-1.076;2022-07-10T00:10:48;3.47;;;1.38;;
58567;SDS011;44354;46.192;-1.076;2022-07-10T00:13:14;4.38;;;1.77;;
58567;SDS011;44354;46.192;-1.076;2022-07-10T00:15:39;2.40;;;1.23;;
58567;SDS011;44354;46.192;-1.076;2022-07-10T00:18:05;2.42;;;1.08;;
58567;SDS011;44354;46.192;-1.076;2022-07-10T00:20:31;3.67;;;1.27;;
58567;SDS011;44354;46.192;-1.076;2022-07-10T00:22:57;3.83;;;1.55;;
58567;SDS011;44354;46.192;-1.076;2022-07-10T00:25:22;4.38;;;1.67;;
58567;SDS011;44354;46.192;-1.076;2022-07-10T00:27:48;1.83;;;1.20;;
58567;SDS011;44354;46.192;-1.076;2022-07-10T00:30:14;2.92;;;1.30;;
58567;SDS011;44354;46.192;-1.076;2022-07-10T00:32:39;1.90;;;1.15;;
58567;SDS011;44354;46.192;-1.076;2022-07-10T00:35:05;4.45;;;1.40;;
58567;SDS011;44354;46.192;-1.076;2022-07-10T00:37:32;3.53;;;1.58;;
58567;SDS011;44354;46.192;-1.076;2022-07-10T00:39:58;3.65;;;1.50;;
58567;SDS011;44354;46.192;-1.076;2022-07-10T00:42:25;2.88;;;1.30;;
58567;SDS011;44354;46.192;-1.076;2022-07-10T00:44:51;3.78;;;1.40;;
58567;SDS011;44354;46.192;-1.076;2022-07-10T00:47:17;1.50;;;1.30;;
58567;SDS011;44354;46.192;-1.076;2022-07-10T00:49:44;8.43;;;1.60;;
58567;SDS011;44354;46.192;-1.076;2022-07-10T00:52:12;4.90;;;1.60;;
58567;SDS011;44354;46.192;-1.076;2022-07-10T00:54:40;2.63;;;1.60;;
58567;SDS011;44354;46.192;-1.076;2022-07-10T00:57:08;2.60;;;1.52;;
58567;SDS011;44354;46.192;-1.076;2022-07-10T00:59:34;4.45;;;1.42;;
58567;SDS011;44354;46.192;-1.076;2022-07-10T01:02:01;3.05;;;1.40;;
58567;SDS011;44354;46.192;-1.076;2022-07-10T01:04:27;4.25;;;1.73;;
58567;SDS011;44354;46.192;-1.076;2022-07-10T01:06:54;3.33;;;1.67;;
58567;SDS011;44354;46.192;-1.076;2022-07-10T01:09:19;4.95;;;2.10;;
58567;SDS011;44354;46.192;-1.076;2022-07-10T01:11:45;7.45;;;1.98;;
58567;SDS011;44354;46.192;-1.076;2022-07-10T01:14:12;9.70;;;1.80;;
58567;SDS011;44354;46.192;-1.076;2022-07-10T01:16:40;3.88;;;1.73;;
58567;SDS011;44354;46.192;-1.076;2022-07-10T01:19:06;4.05;;;1.90;;
58567;SDS011;44354;46.192;-1.076;2022-07-10T01:21:32;5.75;;;2.03;;
58567;SDS011;44354;46.192;-1.076;2022-07-10T01:23:59;5.80;;;2.00;;
58567;SDS011;44354;46.192;-1.076;2022-07-10T01:26:28;5.63;;;1.90;;
58567;SDS011;44354;46.192;-1.076;2022-07-10T01:28:54;2.88;;;1.60;;
58567;SDS011;44354;46.192;-1.076;2022-07-10T01:31:24;2.90;;;1.92;;
58567;SDS011;44354;46.192;-1.076;2022-07-10T01:33:51;4.93;;;1.85;;
58567;SDS011;44354;46.192;-1.076;2022-07-10T01:36:18;11.60;;;1.92;;
58567;SDS011;44354;46.192;-1.076;2022-07-10T01:38:44;5.22;;;1.90;;
58567;SDS011;44354;46.192;-1.076;2022-07-10T01:41:10;4.00;;;1.80;;
58567;SDS011;44354;46.192;-1.076;2022-07-10T01:43:36;9.00;;;1.98;;
58567;SDS011;44354;46.192;-1.076;2022-07-10T01:46:02;3.28;;;1.83;;
58567;SDS011;44354;46.192;-1.076;2022-07-10T01:48:29;4.30;;;1.90;;
58567;SDS011;44354;46.192;-1.076;2022-07-10T01:50:55;4.10;;;1.77;;
58567;SDS011;44354;46.192;-1.076;2022-07-10T01:53:21;6.30;;;2.00;;
58567;SDS011;44354;46.192;-1.076;2022-07-10T01:55:46;3.55;;;1.77;;
58567;SDS011;44354;46.192;-1.076;2022-07-10T01:58:12;1.73;;;1.60;;
58567;SDS011;44354;46.192;-1.076;2022-07-10T02:00:38;3.90;;;1.73;;
58567;SDS011;44354;46.192;-1.076;2022-07-10T02:03:03;3.92;;;1.60;;
58567;SDS011;44354;46.192;-1.076;2022-07-10T02:05:48;2.28;;;1.70;;
58567;SDS011;44354;46.192;-1.076;2022-07-10T02:08:13;4.35;;;1.73;;
58567;SDS011;44354;46.192;-1.076;2022-07-10T02:10:39;6.32;;;1.77;;
58567;SDS011;44354;46.192;-1.076;2022-07-10T02:13:05;7.50;;;2.08;;
58567;SDS011;44354;46.192;-1.076;2022-07-10T02:15:30;5.60;;;1.85;;
58567;SDS011;44354;46.192;-1.076;2022-07-10T02:17:56;5.15;;;1.60;;
58567;SDS011;44354;46.192;-1.076;2022-07-10T02:20:22;2.13;;;1.88;;
58567;SDS011;44354;46.192;-1.076;2022-07-10T02:22:47;5.82;;;1.80;;
58567;SDS011;44354;46.192;-1.076;2022-07-10T02:25:13;5.22;;;1.98;;
58567;SDS011;44354;46.192;-1.076;2022-07-10T02:27:39;4.85;;;2.17;;
58567;SDS011;44354;46.192;-1.076;2022-07-10T02:30:05;6.47;;;1.90;;
58567;SDS011;44354;46.192;-1.076;2022-07-10T02:32:31;5.68;;;1.85;;
58567;SDS011;44354;46.192;-1.076;2022-07-10T02:34:56;4.63;;;1.75;;
58567;SDS011;44354;46.192;-1.076;2022-07-10T02:37:22;2.67;;;1.58;;
58567;SDS011;44354;46.192;-1.076;2022-07-10T02:39:48;3.45;;;2.00;;
58567;SDS011;44354;46.192;-1.076;2022-07-10T02:42:13;2.88;;;1.52;;
58567;SDS011;44354;46.192;-1.076;2022-07-10T02:44:39;5.10;;;1.77;;
58567;SDS011;44354;46.192;-1.076;2022-07-10T02:47:05;4.15;;;1.80;;
58567;SDS011;44354;46.192;-1.076;2022-07-10T02:49:30;6.53;;;1.80;;
58567;SDS011;44354;46.192;-1.076;2022-07-10T02:51:56;6.10;;;1.52;;
58567;SDS011;44354;46.192;-1.076;2022-07-10T02:54:23;2.95;;;1.60;;
58567;SDS011;44354;46.192;-1.076;2022-07-10T02:56:49;6.00;;;1.65;;
58567;SDS011;44354;46.192;-1.076;2022-07-10T02:59:15;3.38;;;1.52;;
58567;SDS011;44354;46.192;-1.076;2022-07-10T03:01:42;5.00;;;1.70;;
58567;SDS011;44354;46.192;-1.076;2022-07-10T03:04:07;3.72;;;1.65;;
58567;SDS011;44354;46.192;-1.076;2022-07-10T03:06:33;2.42;;;1.38;;
58567;SDS011;44354;46.192;-1.076;2022-07-10T03:08:58;3.00;;;1.75;;
58567;SDS011;44354;46.192;-1.076;2022-07-10T03:11:24;5.72;;;1.75;;
58567;SDS011;44354;46.192;-1.076;2022-07-10T03:13:50;3.15;;;1.92;;
58567;SDS011;44354;46.192;-1.076;2022-07-10T03:16:15;3.28;;;1.65;;
58567;SDS011;44354;46.192;-1.076;2022-07-10T03:18:41;4.30;;;1.80;;
58567;SDS011;44354;46.192;-1.076;2022-07-10T03:21:06;5.10;;;2.15;;
58567;SDS011;44354;46.192;-1.076;2022-07-10T03:23:32;5.40;;;2.13;;
58567;SDS011;44354;46.192;-1.076;2022-07-10T03:25:58;5.85;;;2.60;;
58567;SDS011;44354;46.192;-1.076;2022-07-10T03:28:23;12.18;;;2.80;;
58567;SDS011;44354;46.192;-1.076;2022-07-10T03:30:49;5.72;;;2.63;;
58567;SDS011;44354;46.192;-1.076;2022-07-10T03:33:15;7.05;;;2.50;;
58567;SDS011;44354;46.192;-1.076;2022-07-10T03:35:41;6.68;;;2.38;;
58567;SDS011;44354;46.192;-1.076;2022-07-10T03:38:06;8.52;;;3.05;;
58567;SDS011;44354;46.192;-1.076;2022-07-10T03:40:32;5.60;;;2.65;;
58567;SDS011;44354;46.192;-1.076;2022-07-10T03:42:58;4.93;;;2.92;;
58567;SDS011;44354;46.192;-1.076;2022-07-10T03:45:24;8.48;;;3.03;;
58567;SDS011;44354;46.192;-1.076;2022-07-10T03:47:49;9.45;;;2.50;;
58567;SDS011;44354;46.192;-1.076;2022-07-10T03:50:15;5.75;;;2.33;;
58567;SDS011;44354;46.192;-1.076;2022-07-10T03:52:41;8.73;;;2.42;;
58567;SDS011;44354;46.192;-1.076;2022-07-10T03:55:07;5.65;;;2.00;;
58567;SDS011;44354;46.192;-1.076;2022-07-10T03:57:33;3.88;;;1.83;;
58567;SDS011;44354;46.192;-1.076;2022-07-10T04:00:17;5.78;;;2.05;;
58567;SDS011;44354;46.192;-1.076;2022-07-10T04:02:42;4.40;;;2.05;;
58567;SDS011;44354;46.192;-1.076;2022-07-10T04:05:08;4.10;;;1.88;;
58567;SDS011;44354;46.192;-1.076;2022-07-10T04:07:35;3.78;;;1.77;;
58567;SDS011;44354;46.192;-1.076;2022-07-10T04:10:01;2.85;;;1.70;;
58567;SDS011;44354;46.192;-1.076;2022-07-10T04:12:27;5.03;;;1.88;;
58567;SDS011;44354;46.192;-1.076;2022-07-10T04:14:53;3.55;;;1.60;;
58567;SDS011;44354;46.192;-1.076;2022-07-10T04:17:18;3.72;;;1.63;;
58567;SDS011;44354;46.192;-1.076;2022-07-10T04:19:44;5.53;;;1.60;;
58567;SDS011;44354;46.192;-1.076;2022-07-10T04:22:11;4.13;;;1.60;;
58567;SDS011;44354;46.192;-1.076;2022-07-10T04:24:37;2.08;;;1.58;;
58567;SDS011;44354;46.192;-1.076;2022-07-10T04:27:02;3.80;;;1.45;;
58567;SDS011;44354;46.192;-1.076;2022-07-10T04:29:28;6.80;;;1.77;;
58567;SDS011;44354;46.192;-1.076;2022-07-10T04:31:54;3.90;;;1.83;;
58567;SDS011;44354;46.192;-1.076;2022-07-10T04:34:20;5.32;;;2.08;;
58567;SDS011;44354;46.192;-1.076;2022-07-10T04:36:45;6.57;;;2.40;;
58567;SDS011;44354;46.192;-1.076;2022-07-10T04:39:11;3.83;;;1.92;;
58567;SDS011;44354;46.192;-1.076;2022-07-10T04:41:37;4.03;;;1.88;;
58567;SDS011;44354;46.192;-1.076;2022-07-10T04:44:02;8.10;;;1.80;;
58567;SDS011;44354;46.192;-1.076;2022-07-10T04:46:28;5.15;;;2.08;;
58567;SDS011;44354;46.192;-1.076;2022-07-10T04:48:54;5.07;;;1.60;;
58567;SDS011;44354;46.192;-1.076;2022-07-10T04:51:20;6.93;;;2.30;;
58567;SDS011;44354;46.192;-1.076;2022-07-10T04:53:45;3.03;;;1.90;;
58567;SDS011;44354;46.192;-1.076;2022-07-10T04:56:11;5.63;;;2.03;;
58567;SDS011;44354;46.192;-1.076;2022-07-10T04:58:36;4.82;;;1.90;;
58567;SDS011;44354;46.192;-1.076;2022-07-10T05:01:02;10.52;;;2.25;;
58567;SDS011;44354;46.192;-1.076;2022-07-10T05:03:28;10.20;;;2.13;;
58567;SDS011;44354;46.192;-1.076;2022-07-10T05:05:54;3.67;;;1.48;;
58567;SDS011;44354;46.192;-1.076;2022-07-10T05:08:19;3.53;;;1.80;;
58567;SDS011;44354;46.192;-1.076;2022-07-10T05:10:45;3.97;;;1.60;;
58567;SDS011;44354;46.192;-1.076;2022-07-10T05:13:11;5.32;;;1.98;;
58567;SDS011;44354;46.192;-1.076;2022-07-10T05:15:37;4.22;;;1.98;;
58567;SDS011;44354;46.192;-1.076;2022-07-10T05:18:03;3.55;;;1.70;;
58567;SDS011;44354;46.192;-1.076;2022-07-10T05:20:29;5.70;;;1.70;;
58567;SDS011;44354;46.192;-1.076;2022-07-10T05:22:55;5.45;;;1.70;;
58567;SDS011;44354;46.192;-1.076;2022-07-10T05:25:21;6.40;;;1.60;;
58567;SDS011;44354;46.192;-1.076;2022-07-10T05:27:47;4.72;;;1.70;;
58567;SDS011;44354;46.192;-1.076;2022-07-10T05:30:13;4.20;;;2.13;;
58567;SDS011;44354;46.192;-1.076;2022-07-10T05:32:45;1.85;;;1.67;;
58567;SDS011;44354;46.192;-1.076;2022-07-10T05:35:14;5.85;;;1.60;;
58567;SDS011;44354;46.192;-1.076;2022-07-10T05:37:40;4.13;;;1.83;;
58567;SDS011;44354;46.192;-1.076;2022-07-10T05:40:06;6.55;;;2.22;;
58567;SDS011;44354;46.192;-1.076;2022-07-10T05:42:33;4.32;;;1.80;;
58567;SDS011;44354;46.192;-1.076;2022-07-10T05:44:59;4.97;;;1.83;;
58567;SDS011;44354;46.192;-1.076;2022-07-10T05:47:25;3.95;;;1.60;;
58567;SDS011;44354;46.192;-1.076;2022-07-10T05:49:50;5.32;;;1.52;;
58567;SDS011;44354;46.192;-1.076;2022-07-10T05:52:16;9.63;;;1.58;;
58567;SDS011;44354;46.192;-1.076;2022-07-10T05:54:42;4.03;;;1.65;;
58567;SDS011;44354;46.192;-1.076;2022-07-10T05:57:07;11.82;;;1.70;;
58567;SDS011;44354;46.192;-1.076;2022-07-10T05:59:33;7.50;;;1.90;;
58567;SDS011;44354;46.192;-1.076;2022-07-10T06:02:00;4.55;;;1.70;;
58567;SDS011;44354;46.192;-1.076;2022-07-10T06:04:26;6.32;;;2.10;;
58567;SDS011;44354;46.192;-1.076;2022-07-10T06:06:51;4.45;;;1.80;;
58567;SDS011;44354;46.192;-1.076;2022-07-10T06:09:17;4.35;;;1.63;;
58567;SDS011;44354;46.192;-1.076;2022-07-10T06:11:43;5.18;;;1.55;;
58567;SDS011;44354;46.192;-1.076;2022-07-10T06:14:11;2.88;;;2.05;;
58567;SDS011;44354;46.192;-1.076;2022-07-10T06:16:37;8.55;;;1.80;;
58567;SDS011;44354;46.192;-1.076;2022-07-10T06:19:03;2.45;;;1.40;;
58567;SDS011;44354;46.192;-1.076;2022-07-10T06:21:28;7.65;;;1.65;;
58567;SDS011;44354;46.192;-1.076;2022-07-10T06:23:54;3.47;;;1.60;;
58567;SDS011;44354;46.192;-1.076;2022-07-10T06:26:20;4.20;;;1.90;;
58567;SDS011;44354;46.192;-1.076;2022-07-10T06:28:45;5.07;;;1.60;;
58567;SDS011;44354;46.192;-1.076;2022-07-10T06:31:11;5.35;;;1.40;;
58567;SDS011;44354;46.192;-1.076;2022-07-10T06:33:37;3.72;;;1.42;;
58567;SDS011;44354;46.192;-1.076;2022-07-10T06:36:03;6.47;;;1.50;;
58567;SDS011;44354;46.192;-1.076;2022-07-10T06:38:29;8.25;;;1.58;;
58567;SDS011;44354;46.192;-1.076;2022-07-10T06:40:54;2.63;;;1.38;;
58567;SDS011;44354;46.192;-1.076;2022-07-10T06:43:20;1.70;;;1.33;;
58567;SDS011;44354;46.192;-1.076;2022-07-10T06:45:46;6.00;;;1.60;;
58567;SDS011;44354;46.192;-1.076;2022-07-10T06:48:12;6.28;;;1.20;;
58567;SDS011;44354;46.192;-1.076;2022-07-10T06:50:38;1.98;;;1.05;;
58567;SDS011;44354;46.192;-1.076;2022-07-10T06:53:04;7.50;;;1.40;;
58567;SDS011;44354;46.192;-1.076;2022-07-10T06:55:30;5.90;;;1.50;;
58567;SDS011;44354;46.192;-1.076;2022-07-10T06:57:57;3.83;;;1.45;;
58567;SDS011;44354;46.192;-1.076;2022-07-10T07:00:23;2.88;;;1.42;;
58567;SDS011;44354;46.192;-1.076;2022-07-10T07:02:49;4.95;;;1.67;;
58567;SDS011;44354;46.192;-1.076;2022-07-10T07:05:15;3.92;;;1.60;;
58567;SDS011;44354;46.192;-1.076;2022-07-10T07:07:40;6.50;;;1.35;;
58567;SDS011;44354;46.192;-1.076;2022-07-10T07:10:06;1.80;;;1.10;;
58567;SDS011;44354;46.192;-1.076;2022-07-10T07:12:33;3.33;;;1.30;;
58567;SDS011;44354;46.192;-1.076;2022-07-10T07:14:59;3.72;;;1.20;;
58567;SDS011;44354;46.192;-1.076;2022-07-10T07:17:24;3.58;;;1.40;;
58567;SDS011;44354;46.192;-1.076;2022-07-10T07:19:58;4.50;;;1.20;;
58567;SDS011;44354;46.192;-1.076;2022-07-10T07:22:43;2.03;;;1.30;;
58567;SDS011;44354;46.192;-1.076;2022-07-10T07:25:27;5.20;;;1.30;;
58567;SDS011;44354;46.192;-1.076;2022-07-10T07:27:53;2.78;;;1.50;;
58567;SDS011;44354;46.192;-1.076;2022-07-10T07:30:19;1.95;;;1.27;;
58567;SDS011;44354;46.192;-1.076;2022-07-10T07:32:45;3.55;;;1.10;;
58567;SDS011;44354;46.192;-1.076;2022-07-10T07:35:13;2.40;;;1.10;;
58567;SDS011;44354;46.192;-1.076;2022-07-10T07:40:13;3.95;;;1.40;;
58567;SDS011;44354;46.192;-1.076;2022-07-10T07:42:40;2.90;;;1.30;;
58567;SDS011;44354;46.192;-1.076;2022-07-10T07:45:06;6.65;;;1.40;;
58567;SDS011;44354;46.192;-1.076;2022-07-10T07:47:49;4.35;;;1.20;;
58567;SDS011;44354;46.192;-1.076;2022-07-10T07:50:19;4.15;;;1.13;;
58567;SDS011;44354;46.192;-1.076;2022-07-10T07:52:47;5.43;;;1.40;;
58567;SDS011;44354;46.192;-1.076;2022-07-10T07:55:14;1.48;;;1.20;;
58567;SDS011;44354;46.192;-1.076;2022-07-10T07:57:41;2.40;;;1.10;;
58567;SDS011;44354;46.192;-1.076;2022-07-10T08:00:08;2.00;;;1.20;;
58567;SDS011;44354;46.192;-1.076;2022-07-10T08:02:35;5.88;;;1.30;;
58567;SDS011;44354;46.192;-1.076;2022-07-10T08:05:01;5.60;;;1.33;;
58567;SDS011;44354;46.192;-1.076;2022-07-10T08:07:39;2.67;;;1.15;;
58567;SDS011;44354;46.192;-1.076;2022-07-10T08:10:07;2.30;;;1.10;;
58567;SDS011;44354;46.192;-1.076;2022-07-10T08:12:35;2.15;;;0.90;;
58567;SDS011;44354;46.192;-1.076;2022-07-10T08:15:01;2.78;;;1.15;;
58567;SDS011;44354;46.192;-1.076;2022-07-10T08:17:27;3.50;;;1.08;;
58567;SDS011;44354;46.192;-1.076;2022-07-10T08:19:53;4.28;;;1.13;;
58567;SDS011;44354;46.192;-1.076;2022-07-10T08:22:19;4.82;;;1.17;;
58567;SDS011;44354;46.192;-1.076;2022-07-10T08:24:44;7.60;;;1.00;;
58567;SDS011;44354;46.192;-1.076;2022-07-10T08:27:10;5.65;;;1.30;;
58567;SDS011;44354;46.192;-1.076;2022-07-10T08:29:37;5.72;;;1.10;;
58567;SDS011;44354;46.192;-1.076;2022-07-10T08:32:03;5.93;;;1.33;;
58567;SDS011;44354;46.192;-1.076;2022-07-10T08:34:29;4.50;;;0.93;;
58567;SDS011;44354;46.192;-1.076;2022-07-10T08:36:56;12.43;;;1.45;;
58567;SDS011;44354;46.192;-1.076;2022-07-10T08:39:22;3.40;;;1.27;;
58567;SDS011;44354;46.192;-1.076;2022-07-10T08:41:48;5.03;;;1.23;;
58567;SDS011;44354;46.192;-1.076;2022-07-10T08:44:17;2.63;;;1.00;;
58567;SDS011;44354;46.192;-1.076;2022-07-10T08:46:43;1.95;;;1.00;;
58567;SDS011;44354;46.192;-1.076;2022-07-10T08:49:09;2.97;;;1.33;;
58567;SDS011;44354;46.192;-1.076;2022-07-10T08:51:47;5.07;;;1.20;;
58567;SDS011;44354;46.192;-1.076;2022-07-10T08:54:15;2.95;;;1.00;;
58567;SDS011;44354;46.192;-1.076;2022-07-10T08:56:42;3.42;;;1.10;;
58567;SDS011;44354;46.192;-1.076;2022-07-10T08:59:08;1.75;;;1.02;;
58567;SDS011;44354;46.192;-1.076;2022-07-10T09:01:37;4.43;;;1.52;;
58567;SDS011;44354;46.192;-1.076;2022-07-10T09:04:03;2.42;;;1.00;;
58567;SDS011;44354;46.192;-1.076;2022-07-10T09:06:29;5.88;;;0.93;;
58567;SDS011;44354;46.192;-1.076;2022-07-10T09:09:03;4.88;;;1.25;;
58567;SDS011;44354;46.192;-1.076;2022-07-10T09:11:29;3.88;;;1.27;;
58567;SDS011;44354;46.192;-1.076;2022-07-10T09:13:57;3.35;;;1.08;;
58567;SDS011;44354;46.192;-1.076;2022-07-10T09:16:33;10.20;;;1.45;;
58567;SDS011;44354;46.192;-1.076;2022-07-10T09:21:45;5.10;;;1.23;;
58567;SDS011;44354;46.192;-1.076;2022-07-10T09:24:11;6.43;;;1.20;;
58567;SDS011;44354;46.192;-1.076;2022-07-10T09:26:37;1.73;;;1.02;;
58567;SDS011;44354;46.192;-1.076;2022-07-10T09:29:10;5.47;;;1.00;;
58567;SDS011;44354;46.192;-1.076;2022-07-10T09:31:57;5.78;;;1.08;;
58567;SDS011;44354;46.192;-1.076;2022-07-10T09:34:36;2.42;;;1.08;;
58567;SDS011;44354;46.192;-1.076;2022-07-10T09:37:21;1.98;;;1.00;;
58567;SDS011;44354;46.192;-1.076;2022-07-10T09:39:57;7.82;;;1.10;;
58567;SDS011;44354;46.192;-1.076;2022-07-10T09:42:31;2.72;;;1.00;;
58567;SDS011;44354;46.192;-1.076;2022-07-10T09:47:35;3.40;;;1.13;;
58567;SDS011;44354;46.192;-1.076;2022-07-10T09:50:02;4.68;;;1.33;;
58567;SDS011;44354;46.192;-1.076;2022-07-10T09:52:28;3.30;;;1.10;;
58567;SDS011;44354;46.192;-1.076;2022-07-10T09:54:54;5.07;;;1.25;;
58567;SDS011;44354;46.192;-1.076;2022-07-10T09:57:22;1.40;;;0.98;;
58567;SDS011;44354;46.192;-1.076;2022-07-10T09:59:53;2.40;;;0.98;;
58567;SDS011;44354;46.192;-1.076;2022-07-10T10:02:20;5.15;;;0.88;;
58567;SDS011;44354;46.192;-1.076;2022-07-10T10:04:47;1.80;;;0.93;;
58567;SDS011;44354;46.192;-1.076;2022-07-10T10:07:14;2.35;;;1.00;;
58567;SDS011;44354;46.192;-1.076;2022-07-10T10:09:48;1.33;;;0.93;;
58567;SDS011;44354;46.192;-1.076;2022-07-10T10:12:31;3.63;;;0.90;;
58567;SDS011;44354;46.192;-1.076;2022-07-10T10:15:04;4.18;;;1.40;;
58567;SDS011;44354;46.192;-1.076;2022-07-10T10:17:31;2.17;;;1.00;;
58567;SDS011;44354;46.192;-1.076;2022-07-10T10:19:57;6.60;;;1.17;;
58567;SDS011;44354;46.192;-1.076;2022-07-10T10:22:45;5.78;;;1.00;;
58567;SDS011;44354;46.192;-1.076;2022-07-10T10:25:13;3.45;;;1.23;;
58567;SDS011;44354;46.192;-1.076;2022-07-10T10:27:41;1.50;;;1.00;;
58567;SDS011;44354;46.192;-1.076;2022-07-10T10:30:08;4.50;;;0.85;;
58567;SDS011;44354;46.192;-1.076;2022-07-10T10:32:37;2.38;;;0.93;;
58567;SDS011;44354;46.192;-1.076;2022-07-10T10:35:05;3.40;;;1.00;;
58567;SDS011;44354;46.192;-1.076;2022-07-10T10:40:29;2.72;;;1.00;;
58567;SDS011;44354;46.192;-1.076;2022-07-10T10:42:57;4.32;;;1.20;;
58567;SDS011;44354;46.192;-1.076;2022-07-10T10:45:30;1.08;;;0.77;;
58567;SDS011;44354;46.192;-1.076;2022-07-10T10:50:37;1.35;;;0.88;;
58567;SDS011;44354;46.192;-1.076;2022-07-10T10:53:21;7.20;;;1.10;;
58567;SDS011;44354;46.192;-1.076;2022-07-10T10:58:38;2.55;;;1.10;;
58567;SDS011;44354;46.192;-1.076;2022-07-10T11:01:23;3.55;;;1.00;;
58567;SDS011;44354;46.192;-1.076;2022-07-10T11:09:32;4.72;;;1.38;;
58567;SDS011;44354;46.192;-1.076;2022-07-10T11:14:24;1.30;;;1.00;;
58567;SDS011;44354;46.192;-1.076;2022-07-10T11:16:53;4.45;;;1.00;;
58567;SDS011;44354;46.192;-1.076;2022-07-10T11:19:23;1.40;;;0.70;;
58567;SDS011;44354;46.192;-1.076;2022-07-10T11:21:53;2.25;;;0.80;;
58567;SDS011;44354;46.192;-1.076;2022-07-10T11:24:33;2.75;;;0.80;;
58567;SDS011;44354;46.192;-1.076;2022-07-10T11:27:47;4.40;;;0.73;;
58567;SDS011;44354;46.192;-1.076;2022-07-10T11:33:30;1.52;;;0.80;;
58567;SDS011;44354;46.192;-1.076;2022-07-10T11:36:09;2.10;;;0.70;;
58567;SDS011;44354;46.192;-1.076;2022-07-10T11:38:38;0.75;;;0.73;;
58567;SDS011;44354;46.192;-1.076;2022-07-10T11:41:11;4.55;;;0.65;;
58567;SDS011;44354;46.192;-1.076;2022-07-10T11:43:50;2.38;;;0.65;;
58567;SDS011;44354;46.192;-1.076;2022-07-10T11:46:38;2.95;;;0.77;;
58567;SDS011;44354;46.192;-1.076;2022-07-10T11:49:04;2.53;;;0.70;;
58567;SDS011;44354;46.192;-1.076;2022-07-10T11:51:32;1.92;;;0.90;;
58567;SDS011;44354;46.192;-1.076;2022-07-10T11:54:01;0.80;;;0.60;;
58567;SDS011;44354;46.192;-1.076;2022-07-10T11:56:28;3.53;;;0.70;;
58567;SDS011;44354;46.192;-1.076;2022-07-10T11:59:10;4.07;;;0.75;;
58567;SDS011;44354;46.192;-1.076;2022-07-10T12:01:43;3.15;;;0.77;;
58567;SDS011;44354;46.192;-1.076;2022-07-10T12:04:14;3.58;;;0.88;;
58567;SDS011;44354;46.192;-1.076;2022-07-10T12:06:44;7.10;;;0.77;;
58567;SDS011;44354;46.192;-1.076;2022-07-10T12:09:15;1.35;;;0.70;;
58567;SDS011;44354;46.192;-1.076;2022-07-10T12:11:57;4.25;;;0.63;;
58567;SDS011;44354;46.192;-1.076;2022-07-10T12:14:25;3.00;;;0.73;;
58567;SDS011;44354;46.192;-1.076;2022-07-10T12:16:51;2.75;;;0.82;;
58567;SDS011;44354;46.192;-1.076;2022-07-10T12:19:22;2.17;;;0.70;;
58567;SDS011;44354;46.192;-1.076;2022-07-10T12:21:49;3.83;;;0.70;;
58567;SDS011;44354;46.192;-1.076;2022-07-10T12:24:16;0.95;;;0.73;;
58567;SDS011;44354;46.192;-1.076;2022-07-10T12:26:44;3.65;;;0.70;;
58567;SDS011;44354;46.192;-1.076;2022-07-10T12:29:19;1.52;;;0.63;;
58567;SDS011;44354;46.192;-1.076;2022-07-10T12:31:54;2.05;;;0.80;;
58567;SDS011;44354;46.192;-1.076;2022-07-10T12:34:37;0.93;;;0.70;;
58567;SDS011;44354;46.192;-1.076;2022-07-10T12:37:11;6.13;;;0.98;;
58567;SDS011;44354;46.192;-1.076;2022-07-10T12:39:48;0.95;;;0.70;;
58567;SDS011;44354;46.192;-1.076;2022-07-10T12:42:27;2.60;;;0.80;;
58567;SDS011;44354;46.192;-1.076;2022-07-10T12:44:54;3.67;;;1.02;;
58567;SDS011;44354;46.192;-1.076;2022-07-10T12:47:42;1.63;;;0.70;;
58567;SDS011;44354;46.192;-1.076;2022-07-10T12:50:11;1.55;;;0.80;;
58567;SDS011;44354;46.192;-1.076;2022-07-10T12:52:38;3.03;;;0.70;;
58567;SDS011;44354;46.192;-1.076;2022-07-10T12:57:54;3.08;;;0.80;;
58567;SDS011;44354;46.192;-1.076;2022-07-10T13:03:00;1.17;;;0.70;;
58567;SDS011;44354;46.192;-1.076;2022-07-10T13:05:37;3.28;;;0.57;;
58567;SDS011;44354;46.192;-1.076;2022-07-10T13:10:35;3.70;;;0.80;;
58567;SDS011;44354;46.192;-1.076;2022-07-10T13:13:01;6.93;;;0.85;;
58567;SDS011;44354;46.192;-1.076;2022-07-10T13:15:31;2.13;;;0.82;;
58567;SDS011;44354;46.192;-1.076;2022-07-10T13:17:59;4.93;;;1.05;;
58567;SDS011;44354;46.192;-1.076;2022-07-10T13:20:25;2.03;;;0.82;;
58567;SDS011;44354;46.192;-1.076;2022-07-10T13:22:51;4.03;;;0.80;;
58567;SDS011;44354;46.192;-1.076;2022-07-10T13:25:16;2.63;;;0.80;;
58567;SDS011;44354;46.192;-1.076;2022-07-10T13:27:42;2.58;;;0.70;;
58567;SDS011;44354;46.192;-1.076;2022-07-10T13:30:09;3.65;;;0.90;;
58567;SDS011;44354;46.192;-1.076;2022-07-10T13:32:35;4.03;;;0.70;;
58567;SDS011;44354;46.192;-1.076;2022-07-10T13:35:01;3.65;;;0.90;;
58567;SDS011;44354;46.192;-1.076;2022-07-10T13:37:27;6.90;;;0.88;;
58567;SDS011;44354;46.192;-1.076;2022-07-10T13:39:53;1.90;;;0.80;;
58567;SDS011;44354;46.192;-1.076;2022-07-10T13:42:19;1.80;;;0.60;;
58567;SDS011;44354;46.192;-1.076;2022-07-10T13:44:45;3.92;;;0.90;;
58567;SDS011;44354;46.192;-1.076;2022-07-10T13:47:11;2.05;;;0.80;;
58567;SDS011;44354;46.192;-1.076;2022-07-10T13:49:36;3.95;;;0.98;;
58567;SDS011;44354;46.192;-1.076;2022-07-10T13:52:02;3.42;;;0.70;;
58567;SDS011;44354;46.192;-1.076;2022-07-10T13:54:28;1.60;;;0.80;;
58567;SDS011;44354;46.192;-1.076;2022-07-10T13:56:54;1.27;;;0.70;;
58567;SDS011;44354;46.192;-1.076;2022-07-10T13:59:19;0.75;;;0.68;;
58567;SDS011;44354;46.192;-1.076;2022-07-10T14:01:45;5.38;;;0.85;;
58567;SDS011;44354;46.192;-1.076;2022-07-10T14:04:10;3.83;;;1.00;;
58567;SDS011;44354;46.192;-1.076;2022-07-10T14:06:36;1.75;;;1.02;;
58567;SDS011;44354;46.192;-1.076;2022-07-10T14:09:02;2.15;;;1.00;;
58567;SDS011;44354;46.192;-1.076;2022-07-10T14:11:28;4.05;;;0.95;;
58567;SDS011;44354;46.192;-1.076;2022-07-10T14:13:54;2.58;;;0.80;;
58567;SDS011;44354;46.192;-1.076;2022-07-10T14:16:19;1.65;;;0.90;;
58567;SDS011;44354;46.192;-1.076;2022-07-10T14:18:45;10.57;;;0.88;;
58567;SDS011;44354;46.192;-1.076;2022-07-10T14:21:11;1.30;;;0.73;;
58567;SDS011;44354;46.192;-1.076;2022-07-10T14:23:39;1.63;;;0.90;;
58567;SDS011;44354;46.192;-1.076;2022-07-10T14:26:09;1.30;;;0.70;;
58567;SDS011;44354;46.192;-1.076;2022-07-10T14:28:36;1.38;;;0.70;;
58567;SDS011;44354;46.192;-1.076;2022-07-10T14:31:03;0.40;;;0.40;;
58567;SDS011;44354;46.192;-1.076;2022-07-10T14:33:30;1.90;;;0.80;;
58567;SDS011;44354;46.192;-1.076;2022-07-10T14:35:57;1.95;;;0.80;;
58567;SDS011;44354;46.192;-1.076;2022-07-10T14:38:24;2.17;;;0.75;;
58567;SDS011;44354;46.192;-1.076;2022-07-10T14:40:49;2.88;;;0.70;;
58567;SDS011;44354;46.192;-1.076;2022-07-10T14:43:17;0.57;;;0.57;;
58567;SDS011;44354;46.192;-1.076;2022-07-10T14:45:46;1.15;;;0.80;;
58567;SDS011;44354;46.192;-1.076;2022-07-10T14:48:12;1.50;;;0.88;;
58567;SDS011;44354;46.192;-1.076;2022-07-10T14:50:38;2.10;;;0.68;;
58567;SDS011;44354;46.192;-1.076;2022-07-10T14:53:05;0.85;;;0.63;;
58567;SDS011;44354;46.192;-1.076;2022-07-10T14:55:32;3.60;;;0.80;;
58567;SDS011;44354;46.192;-1.076;2022-07-10T14:57:58;3.22;;;1.00;;
58567;SDS011;44354;46.192;-1.076;2022-07-10T15:00:23;2.85;;;0.70;;
58567;SDS011;44354;46.192;-1.076;2022-07-10T15:02:49;3.15;;;0.77;;
58567;SDS011;44354;46.192;-1.076;2022-07-10T15:05:14;2.05;;;0.70;;
58567;SDS011;44354;46.192;-1.076;2022-07-10T15:07:40;1.42;;;0.80;;
58567;SDS011;44354;46.192;-1.076;2022-07-10T15:10:06;1.50;;;0.70;;
58567;SDS011;44354;46.192;-1.076;2022-07-10T15:12:37;2.05;;;0.90;;